Lyons, CO

10:41 AM MST on February 24, 2017 (GMT -0700)
Kelling | | Change Station

Elev 5436 ft 40.22 °N, 105.26 °W | Updated 2 seconds ago

Overcast
Overcast
20.7 °F
Feels Like 16 °F
N
3.1
Wind Variable Wind from SSE
Gusts 5.4 mph

Today
High -- | Low -- °F
--% Chance of Precip.
Yesterday
High -- | Low -- °F
Precip. -- in
Pressure 29.99 in
Visibility 7.0 miles
Clouds Mostly Cloudy 1700 ft
Overcast 2400 ft
Windchill 16 °F
Dew Point 12 °F
Humidity 70%
Rainfall 0.00 in
Snow Depth Not available.
6:41 AM 5:47 PM
Waning Crescent, 4% visible
METAR KLMO 241733Z AUTO 00000KT 7SM -SN BKN017 OVC024 M02/M09 A2999 RMK AO2 T10211094
Pressure 29.99 in
Visibility 7.0 miles
Clouds Mostly Cloudy 1700 ft
Overcast 2400 ft
Windchill 16 °F
Dew Point 12 °F
Humidity 70%
Rainfall 0.00 in
Snow Depth Not available.
6:41 AM 5:47 PM
Waning Crescent, 4% visible
METAR KLMO 241733Z AUTO 00000KT 7SM -SN BKN017 OVC024 M02/M09 A2999 RMK AO2 T10211094

Get Your Daily Forecast Email!

Thanks for signing up!

Be on the lookout for a verification email in your inbox.

You'll start receiving the daily forecast at 8 AM.

×

10-Day Weather Forecast

Almanac

Astronomy

Feb. 24, 2017 Rise Set
Actual Time
Civil Twilight
Nautical Twilight
Astronomical Twilight
Moon
Length of Visible Light
Length of Day
Tomorrow will be .
, % of the Moon is Illuminated

Today's Extremes

State Highs State Lows

Community

WunderPhotos

Upload Photos

1,962,540 photos uploaded!

WunderBlog® & News

Nearby

Air Quality

  Air Quality AQ Index Pollutant
Not available.

Snow Depth

Station Depth Elevation

Earthquake Activity

City Distance Mag. Time & Date
Minimum magnitude displayed is 2.5.

Coastal Water Temperatures

Place Temperature

Stations

Nearby Weather Stations

Station Location Temp. Windchill Dew Point Humidity Wind Precip. Elev Updated Type
                   

Watches & Warnings

There are currently no watches in effect.